createdAt,value
2022-08-02T00:00:25.352Z,69.56
2022-08-02T00:00:57.081Z,69.73
2022-08-02T00:01:47.096Z,69.48
2022-08-02T00:03:44.796Z,69.94
2022-08-02T00:04:16.213Z,69.63
2022-08-02T00:04:47.697Z,69.70
2022-08-02T00:05:37.543Z,69.92
2022-08-02T00:06:11.728Z,70.14
2022-08-02T00:06:43.142Z,69.56
2022-08-02T00:07:15.677Z,69.51
2022-08-02T00:07:47.026Z,69.54
2022-08-02T00:08:18.717Z,69.30
2022-08-02T00:08:50.119Z,69.53
2022-08-02T00:09:21.496Z,69.74
2022-08-02T00:09:52.835Z,70.20
2022-08-02T00:10:24.262Z,69.53
2022-08-02T00:10:55.764Z,70.05
2022-08-02T00:11:27.460Z,69.37
2022-08-02T00:11:58.849Z,69.59
2022-08-02T00:12:30.384Z,69.76
2022-08-02T00:13:01.931Z,69.93
2022-08-02T00:13:33.465Z,69.95
2022-08-02T00:14:23.852Z,70.21
2022-08-02T00:14:55.346Z,70.31
2022-08-02T00:15:26.891Z,70.00
2022-08-02T00:15:58.382Z,70.83
2022-08-02T00:16:48.471Z,70.18
2022-08-02T00:17:20.035Z,70.91
2022-08-02T00:17:51.395Z,70.77
2022-08-02T00:18:22.912Z,70.69
2022-08-02T00:18:54.257Z,70.49
2022-08-02T00:19:25.731Z,70.69
2022-08-02T00:19:57.109Z,70.94
2022-08-02T00:20:28.580Z,70.56
2022-08-02T00:20:59.987Z,70.96
2022-08-02T00:21:49.950Z,70.04
2022-08-02T00:22:21.307Z,70.59
2022-08-02T00:22:53.244Z,70.86
2022-08-02T00:23:24.643Z,70.45
2022-08-02T00:24:28.957Z,70.60
2022-08-02T00:25:01.039Z,70.46
2022-08-02T00:25:32.433Z,70.65
2022-08-02T00:26:03.865Z,70.55
2022-08-02T00:26:35.267Z,70.67
2022-08-02T00:27:09.540Z,70.45
2022-08-02T00:27:41.233Z,70.83
2022-08-02T00:28:12.686Z,71.07
2022-08-02T00:28:44.112Z,71.43
2022-08-02T00:29:15.627Z,70.77
2022-08-02T00:29:52.583Z,70.71
2022-08-02T00:30:24.959Z,70.86
2022-08-02T00:30:59.738Z,71.03
2022-08-02T00:31:31.139Z,70.87
2022-08-02T00:32:02.759Z,71.00
2022-08-02T00:32:34.129Z,70.47
2022-08-02T00:33:05.964Z,70.83
2022-08-02T00:34:26.440Z,70.92
2022-08-02T00:34:32.865Z,70.93
2022-08-02T00:35:07.136Z,71.11
2022-08-02T00:35:40.786Z,71.62
2022-08-02T00:36:12.442Z,71.36
2022-08-02T00:36:43.817Z,71.20
2022-08-02T00:37:15.262Z,71.72
2022-08-02T00:37:46.625Z,71.43
2022-08-02T00:38:18.016Z,71.68
2022-08-02T00:38:50.759Z,71.12
2022-08-02T00:39:35.063Z,71.11
2022-08-02T00:40:08.523Z,70.78
2022-08-02T00:40:40.311Z,70.88
2022-08-02T00:41:14.326Z,71.13
2022-08-02T00:41:50.024Z,71.05
2022-08-02T00:42:21.923Z,71.10
2022-08-02T00:43:06.480Z,71.03
2022-08-02T00:43:37.857Z,71.42
2022-08-02T00:44:09.464Z,71.36
2022-08-02T00:44:42.989Z,71.13
2022-08-02T00:45:14.390Z,71.66
2022-08-02T00:46:02.974Z,71.40
2022-08-02T00:46:35.388Z,71.16
2022-08-02T00:47:06.804Z,71.35
2022-08-02T00:47:38.352Z,71.63
2022-08-02T00:48:11.569Z,71.23
2022-08-02T00:48:43.418Z,71.63
2022-08-02T00:49:33.451Z,70.95
2022-08-02T00:50:05.376Z,71.46
2022-08-02T00:51:27.563Z,71.59
2022-08-02T00:51:58.935Z,71.76
2022-08-02T00:52:30.308Z,71.37
2022-08-02T00:53:20.606Z,72.01
2022-08-02T00:53:51.988Z,71.94
2022-08-02T00:54:23.447Z,71.38
2022-08-02T00:54:54.824Z,71.64
2022-08-02T00:55:31.374Z,71.63
2022-08-02T00:56:03.438Z,71.87
2022-08-02T00:56:53.559Z,71.76
2022-08-02T00:57:24.964Z,71.76
2022-08-02T00:57:56.588Z,72.06
2022-08-02T00:59:05.532Z,72.30
2022-08-02T00:59:55.692Z,71.93
2022-08-02T01:00:29.930Z,72.26
2022-08-02T01:01:20.505Z,72.18
2022-08-02T01:01:56.198Z,72.63
2022-08-02T01:03:18.127Z,72.24
2022-08-02T01:03:49.701Z,72.57
2022-08-02T01:04:30.032Z,72.45
2022-08-02T01:05:03.893Z,71.87
2022-08-02T01:05:55.790Z,72.28
2022-08-02T01:06:33.075Z,72.00
2022-08-02T01:07:11.982Z,72.79
2022-08-02T01:08:03.936Z,72.47
2022-08-02T01:08:35.284Z,72.76
2022-08-02T01:09:56.571Z,72.75
2022-08-02T01:10:28.049Z,72.57
2022-08-02T01:10:59.583Z,72.99
2022-08-02T01:11:33.491Z,72.99
2022-08-02T01:12:05.177Z,73.03
2022-08-02T01:12:37.454Z,72.81
2022-08-02T01:13:08.804Z,72.91
2022-08-02T01:13:40.261Z,72.89
2022-08-02T01:14:14.184Z,72.68
2022-08-02T01:14:49.572Z,72.69
2022-08-02T01:15:21.838Z,72.70
2022-08-02T01:16:16.060Z,73.15
2022-08-02T01:17:08.384Z,73.26
2022-08-02T01:17:50.564Z,73.16
2022-08-02T01:18:30.983Z,73.23
2022-08-02T01:19:27.512Z,72.91
2022-08-02T01:20:34.688Z,72.90
2022-08-02T01:21:21.512Z,72.50
2022-08-02T01:22:20.692Z,73.24
2022-08-02T01:23:13.664Z,72.66
2022-08-02T01:24:11.867Z,72.95
2022-08-02T01:24:56.458Z,72.24
2022-08-02T01:25:58.831Z,73.54
2022-08-02T01:27:02.254Z,73.24
2022-08-02T01:27:52.458Z,73.46
2022-08-02T01:28:50.678Z,73.36
2022-08-02T01:29:30.332Z,73.55
2022-08-02T01:30:03.779Z,73.46
2022-08-02T01:30:36.229Z,73.35
2022-08-02T01:31:15.456Z,73.82
2022-08-02T01:32:08.365Z,73.81
2022-08-02T01:32:46.531Z,73.25
2022-08-02T01:33:20.485Z,73.39
2022-08-02T01:33:59.642Z,73.39
2022-08-02T01:34:37.572Z,73.59
2022-08-02T01:35:13.576Z,73.98
2022-08-02T01:35:53.786Z,73.78
2022-08-02T01:36:28.997Z,73.06
2022-08-02T01:37:37.029Z,73.02
2022-08-02T01:38:14.428Z,73.40
2022-08-02T01:38:51.173Z,74.43
2022-08-02T01:39:32.100Z,73.97
2022-08-02T01:40:09.314Z,73.77
2022-08-02T01:40:43.266Z,73.81
2022-08-02T01:41:26.492Z,73.95
2022-08-02T01:42:17.254Z,73.41
2022-08-02T01:42:52.587Z,73.66
2022-08-02T01:43:28.924Z,73.59
2022-08-02T01:44:03.139Z,74.01
2022-08-02T01:44:37.963Z,73.33
2022-08-02T01:45:29.713Z,73.55
2022-08-02T01:46:01.480Z,73.98
2022-08-02T01:46:34.243Z,74.13
2022-08-02T01:47:10.937Z,73.81
2022-08-02T01:47:44.590Z,73.94
2022-08-02T01:48:16.637Z,73.82
2022-08-02T01:48:50.545Z,74.54
2022-08-02T01:49:24.598Z,73.96
2022-08-02T01:49:58.503Z,74.35
2022-08-02T01:50:33.818Z,74.01
2022-08-02T01:51:08.294Z,74.23
2022-08-02T01:52:00.157Z,73.24
2022-08-02T01:52:37.359Z,73.74
2022-08-02T01:53:12.577Z,73.71
2022-08-02T01:53:45.899Z,73.20
2022-08-02T01:54:19.797Z,72.92
2022-08-02T01:54:58.348Z,73.85
2022-08-02T01:55:56.777Z,73.67
2022-08-02T01:56:26.205Z,73.81
2022-08-02T01:56:59.292Z,73.64
2022-08-02T01:57:42.145Z,73.78
2022-08-02T01:58:18.177Z,73.81
2022-08-02T01:58:50.093Z,73.71
2022-08-02T01:59:23.822Z,73.93
2022-08-02T02:00:00.254Z,74.01
2022-08-02T02:00:39.059Z,73.82
2022-08-02T02:02:01.925Z,73.55
2022-08-02T02:02:36.688Z,74.17
2022-08-02T02:03:15.698Z,74.31
2022-08-02T02:03:48.800Z,73.87
2022-08-02T02:04:22.043Z,74.41
2022-08-02T02:04:55.828Z,73.28
2022-08-02T02:05:30.900Z,73.51
2022-08-02T02:06:05.542Z,73.95
2022-08-02T02:06:38.093Z,74.24
2022-08-02T02:07:12.689Z,73.76
2022-08-02T02:07:46.372Z,73.56
2022-08-02T02:08:27.380Z,73.66
2022-08-02T02:09:00.543Z,74.26
2022-08-02T02:09:51.399Z,74.17
2022-08-02T02:10:47.321Z,73.61
2022-08-02T02:12:06.256Z,73.98
2022-08-02T02:12:14.833Z,73.62
2022-08-02T02:12:49.490Z,73.97
2022-08-02T02:13:21.479Z,73.75
2022-08-02T02:14:07.620Z,74.07
2022-08-02T02:14:40.598Z,74.28
2022-08-02T02:15:13.068Z,73.83
2022-08-02T02:15:50.870Z,73.76
2022-08-02T02:16:24.844Z,74.70
2022-08-02T02:17:00.300Z,74.25
2022-08-02T02:18:11.312Z,74.38
2022-08-02T02:18:44.624Z,74.56
2022-08-02T02:20:27.799Z,74.56
2022-08-02T02:20:59.332Z,74.29
2022-08-02T02:21:31.426Z,74.29
2022-08-02T02:22:03.464Z,74.09
2022-08-02T02:22:34.932Z,74.54
2022-08-02T02:23:06.560Z,74.21
2022-08-02T02:23:39.718Z,74.33
2022-08-02T02:24:12.879Z,74.76
2022-08-02T02:24:44.640Z,74.35
2022-08-02T02:25:19.705Z,74.47
2022-08-02T02:25:58.380Z,74.66
2022-08-02T02:26:31.860Z,74.30
2022-08-02T02:27:07.824Z,74.82
2022-08-02T02:27:52.041Z,74.75
2022-08-02T02:28:30.273Z,74.61
2022-08-02T02:29:03.341Z,74.53
2022-08-02T02:29:37.116Z,74.34
2022-08-02T02:30:09.379Z,74.22
2022-08-02T02:30:47.725Z,74.23
2022-08-02T02:32:12.537Z,74.50
2022-08-02T02:32:47.591Z,74.32
2022-08-02T02:33:24.161Z,74.89
2022-08-02T02:35:10.672Z,74.61
2022-08-02T02:35:43.165Z,74.72
2022-08-02T02:36:17.955Z,74.70
2022-08-02T02:37:41.609Z,75.22
2022-08-02T02:38:16.538Z,74.73
2022-08-02T02:38:50.546Z,75.03
2022-08-02T02:39:23.427Z,74.89
2022-08-02T02:39:57.698Z,74.50
2022-08-02T02:40:29.577Z,74.50
2022-08-02T02:41:02.946Z,74.53
2022-08-02T02:41:34.420Z,74.47
2022-08-02T02:42:11.015Z,74.56
2022-08-02T02:42:49.246Z,74.48
2022-08-02T02:43:22.719Z,74.52
2022-08-02T02:43:56.390Z,74.42
2022-08-02T02:44:29.338Z,74.21
2022-08-02T02:45:02.948Z,74.20
2022-08-02T02:45:35.077Z,74.38
2022-08-02T02:46:26.258Z,74.70
2022-08-02T02:46:58.526Z,74.44
2022-08-02T02:47:40.516Z,74.23
2022-08-02T02:48:15.005Z,73.95
2022-08-02T02:48:46.408Z,74.57
2022-08-02T02:49:20.193Z,74.21
2022-08-02T02:49:52.704Z,74.87
2022-08-02T02:50:25.489Z,74.54
2022-08-02T02:50:58.160Z,74.52
2022-08-02T02:51:30.889Z,74.82
2022-08-02T02:52:05.814Z,74.91
2022-08-02T02:52:56.255Z,75.17
2022-08-02T02:53:28.812Z,74.36
2022-08-02T02:54:31.932Z,74.86
2022-08-02T02:55:08.492Z,74.90
2022-08-02T02:55:41.697Z,74.69
2022-08-02T02:56:33.152Z,75.00
2022-08-02T02:57:06.273Z,74.50
2022-08-02T02:57:39.785Z,74.37
2022-08-02T02:58:11.863Z,74.41
2022-08-02T02:58:45.528Z,74.08
2022-08-02T02:59:18.023Z,74.72
2022-08-02T02:59:50.102Z,73.96
2022-08-02T03:00:42.140Z,74.71
2022-08-02T03:01:55.302Z,74.46
2022-08-02T03:02:24.377Z,74.14
2022-08-02T03:02:56.552Z,74.76
2022-08-02T03:03:29.615Z,73.99
2022-08-02T03:04:05.041Z,74.44
2022-08-02T03:04:55.646Z,74.70
2022-08-02T03:05:28.139Z,74.84
2022-08-02T03:05:59.561Z,74.97
2022-08-02T03:06:31.269Z,74.57
2022-08-02T03:07:02.825Z,75.21
2022-08-02T03:07:34.770Z,74.32
2022-08-02T03:08:06.262Z,74.88
2022-08-02T03:08:37.752Z,74.50
2022-08-02T03:09:10.313Z,74.45
2022-08-02T03:09:43.091Z,74.96
2022-08-02T03:10:14.508Z,74.44
2022-08-02T03:10:46.831Z,74.73
2022-08-02T03:11:18.594Z,74.87
2022-08-02T03:11:50.988Z,75.14
2022-08-02T03:12:30.179Z,74.94
2022-08-02T03:13:02.995Z,75.05
2022-08-02T03:13:36.413Z,75.30
2022-08-02T03:14:10.900Z,74.93
2022-08-02T03:14:43.825Z,75.32
2022-08-02T03:15:15.353Z,75.31
2022-08-02T03:15:48.072Z,75.51
2022-08-02T03:16:19.452Z,75.22
2022-08-02T03:17:10.935Z,75.08
2022-08-02T03:17:45.985Z,75.68
2022-08-02T03:19:33.205Z,75.24
2022-08-02T03:20:09.188Z,74.83
2022-08-02T03:20:40.595Z,75.71
2022-08-02T03:21:13.297Z,75.46
2022-08-02T03:21:46.902Z,75.54
2022-08-02T03:22:18.227Z,75.75
2022-08-02T03:23:08.859Z,75.28
2022-08-02T03:23:42.616Z,75.56
2022-08-02T03:24:14.485Z,75.46
2022-08-02T03:24:45.895Z,76.14
2022-08-02T03:25:18.405Z,75.49
2022-08-02T03:25:49.819Z,75.37
2022-08-02T03:26:21.368Z,75.31
2022-08-02T03:26:52.756Z,75.45
2022-08-02T03:27:24.120Z,75.48
2022-08-02T03:27:55.479Z,75.36
2022-08-02T03:28:27.067Z,74.97
2022-08-02T03:28:58.440Z,75.44
2022-08-02T03:29:34.125Z,75.04
2022-08-02T03:30:08.389Z,75.09
2022-08-02T03:30:39.732Z,75.08
2022-08-02T03:31:11.143Z,75.31
2022-08-02T03:31:45.417Z,75.79
2022-08-02T03:32:16.825Z,75.43
2022-08-02T03:32:48.699Z,75.91
2022-08-02T03:33:22.068Z,75.29
2022-08-02T03:33:55.024Z,75.34
2022-08-02T03:34:26.579Z,75.42
2022-08-02T03:34:57.996Z,75.21
2022-08-02T03:35:29.731Z,75.77
2022-08-02T03:36:10.542Z,75.24
2022-08-02T03:36:43.057Z,75.31
2022-08-02T03:37:15.462Z,74.98
2022-08-02T03:37:47.039Z,75.28
2022-08-02T03:38:21.532Z,75.31
2022-08-02T03:39:12.125Z,75.17
2022-08-02T03:39:49.629Z,75.16
2022-08-02T03:40:43.985Z,75.70
2022-08-02T03:41:18.803Z,75.44
2022-08-02T03:42:09.126Z,75.26
2022-08-02T03:42:47.784Z,75.60
2022-08-02T03:43:20.539Z,75.22
2022-08-02T03:43:52.780Z,75.54
2022-08-02T03:44:25.421Z,75.15
2022-08-02T03:44:58.988Z,75.52
2022-08-02T03:45:30.640Z,75.40
2022-08-02T03:46:04.604Z,74.93
2022-08-02T03:46:39.481Z,75.35
2022-08-02T03:47:12.489Z,74.80
2022-08-02T03:47:44.607Z,74.91
2022-08-02T03:48:34.405Z,75.44
2022-08-02T03:49:10.749Z,74.69
2022-08-02T03:49:43.935Z,75.37
2022-08-02T03:50:15.816Z,75.17
2022-08-02T03:51:37.278Z,74.84
2022-08-02T03:52:27.379Z,74.82
2022-08-02T03:52:59.682Z,75.06
2022-08-02T03:53:31.417Z,75.01
2022-08-02T03:54:22.742Z,75.30
2022-08-02T03:55:04.965Z,74.92
2022-08-02T03:55:36.872Z,75.33
2022-08-02T03:56:09.846Z,75.49
2022-08-02T03:56:41.566Z,75.67
2022-08-02T03:57:32.560Z,75.28
2022-08-02T03:58:03.986Z,75.43
2022-08-02T03:58:35.611Z,74.67
2022-08-02T03:59:12.300Z,74.59
2022-08-02T03:59:46.871Z,74.69
2022-08-02T04:00:20.941Z,74.34
2022-08-02T04:00:54.262Z,74.94
2022-08-02T04:01:27.656Z,75.03
2022-08-02T04:01:59.099Z,75.50
2022-08-02T04:02:35.900Z,75.34
2022-08-02T04:03:07.248Z,74.95
2022-08-02T04:03:42.336Z,75.23
2022-08-02T04:04:13.692Z,74.80
2022-08-02T04:04:45.100Z,74.94
2022-08-02T04:05:17.707Z,75.20
2022-08-02T04:06:03.833Z,74.60
2022-08-02T04:06:40.054Z,74.61
2022-08-02T04:07:13.180Z,75.31
2022-08-02T04:08:33.250Z,74.94
2022-08-02T04:08:38.681Z,75.31
2022-08-02T04:09:10.353Z,75.09
2022-08-02T04:09:41.740Z,75.47
2022-08-02T04:10:15.025Z,75.11
2022-08-02T04:11:05.240Z,75.06
2022-08-02T04:11:37.791Z,75.56
2022-08-02T04:12:09.684Z,75.00
2022-08-02T04:12:41.223Z,74.89
2022-08-02T04:13:12.640Z,75.09
2022-08-02T04:13:46.792Z,75.63
2022-08-02T04:14:20.854Z,74.95
2022-08-02T04:14:52.473Z,75.10
2022-08-02T04:15:24.607Z,74.95
2022-08-02T04:16:02.830Z,74.84
2022-08-02T04:16:46.493Z,74.89
2022-08-02T04:17:20.944Z,75.45
2022-08-02T04:17:59.387Z,75.64
2022-08-02T04:18:39.237Z,74.63
2022-08-02T04:19:16.799Z,75.15
2022-08-02T04:19:56.023Z,75.03
2022-08-02T04:20:29.884Z,75.23
2022-08-02T04:21:03.706Z,74.90
2022-08-02T04:21:50.077Z,74.39
2022-08-02T04:22:27.459Z,74.86
2022-08-02T04:23:06.505Z,74.69
2022-08-02T04:23:39.693Z,74.95
2022-08-02T04:24:11.941Z,74.81
2022-08-02T04:24:54.276Z,74.88
2022-08-02T04:25:35.328Z,74.87
2022-08-02T04:26:12.028Z,75.39
2022-08-02T04:26:44.688Z,75.62
2022-08-02T04:27:51.119Z,75.34
2022-08-02T04:28:18.378Z,75.61
2022-08-02T04:29:08.659Z,75.90
2022-08-02T04:29:45.186Z,75.27
2022-08-02T04:30:19.165Z,75.39
2022-08-02T04:30:51.388Z,75.35
2022-08-02T04:31:23.784Z,74.92
2022-08-02T04:31:55.468Z,74.79
2022-08-02T04:33:04.576Z,75.20
2022-08-02T04:33:54.626Z,75.36
2022-08-02T04:34:26.162Z,74.50
2022-08-02T04:36:07.985Z,74.98
2022-08-02T04:36:40.377Z,75.15
2022-08-02T04:37:13.356Z,75.47
2022-08-02T04:38:09.080Z,74.98
2022-08-02T04:38:36.689Z,75.38
2022-08-02T04:39:08.196Z,75.32
2022-08-02T04:39:42.998Z,75.00
2022-08-02T04:40:15.478Z,75.20
2022-08-02T04:40:54.463Z,75.59
2022-08-02T04:41:44.259Z,74.76
2022-08-02T04:42:23.828Z,74.82
2022-08-02T04:43:14.035Z,75.00
2022-08-02T04:43:45.393Z,75.83
2022-08-02T04:44:16.793Z,75.24
2022-08-02T04:44:48.492Z,75.18
2022-08-02T04:45:21.504Z,75.38
2022-08-02T04:45:54.719Z,74.92
2022-08-02T04:46:26.535Z,74.76
2022-08-02T04:47:04.801Z,75.46
2022-08-02T04:48:01.831Z,74.98
2022-08-02T04:48:29.811Z,75.17
2022-08-02T04:49:01.266Z,75.44
2022-08-02T04:49:51.216Z,75.46
2022-08-02T04:50:22.624Z,75.68
2022-08-02T04:50:54.139Z,75.07
2022-08-02T04:51:38.360Z,75.44
2022-08-02T04:52:10.464Z,75.58
2022-08-02T04:52:45.799Z,76.08
2022-08-02T04:53:17.985Z,75.03
2022-08-02T04:53:49.331Z,75.45
2022-08-02T04:54:21.272Z,75.52
2022-08-02T04:54:53.864Z,75.54
2022-08-02T04:55:28.462Z,75.35
2022-08-02T04:56:00.158Z,75.23
2022-08-02T04:56:31.637Z,75.36
2022-08-02T04:57:23.014Z,75.40
2022-08-02T04:57:54.957Z,75.13
2022-08-02T04:58:41.764Z,74.93
2022-08-02T04:59:31.820Z,75.61
2022-08-02T05:00:04.568Z,75.40
2022-08-02T05:00:36.080Z,75.44
2022-08-02T05:01:07.629Z,75.93
2022-08-02T05:01:39.476Z,75.67
2022-08-02T05:02:11.143Z,75.77
2022-08-02T05:02:42.660Z,76.03
2022-08-02T05:03:14.594Z,76.13
2022-08-02T05:03:46.885Z,75.80
2022-08-02T05:04:18.858Z,76.10
2022-08-02T05:05:10.346Z,75.91
2022-08-02T05:05:41.856Z,75.72
2022-08-02T05:06:19.391Z,75.60
2022-08-02T05:06:51.080Z,75.93
2022-08-02T05:07:22.440Z,75.39
2022-08-02T05:07:54.120Z,75.81
2022-08-02T05:08:25.527Z,75.47
2022-08-02T05:08:57.115Z,75.32
2022-08-02T05:09:28.459Z,75.50
2022-08-02T05:09:59.838Z,75.54
2022-08-02T05:10:31.266Z,75.46
2022-08-02T05:11:02.685Z,75.74
2022-08-02T05:11:36.428Z,75.46
2022-08-02T05:12:09.095Z,75.93
2022-08-02T05:12:41.427Z,75.41
2022-08-02T05:13:12.807Z,75.32
2022-08-02T05:13:57.405Z,75.68
2022-08-02T05:14:29.197Z,75.56
2022-08-02T05:15:00.682Z,75.45
2022-08-02T05:15:33.518Z,75.59
2022-08-02T05:16:05.143Z,75.52
2022-08-02T05:16:36.560Z,75.29
2022-08-02T05:17:26.681Z,75.52
2022-08-02T05:17:58.037Z,75.62
2022-08-02T05:18:29.456Z,75.60
2022-08-02T05:19:02.297Z,75.16
2022-08-02T05:19:34.216Z,75.03
2022-08-02T05:20:06.419Z,75.34
2022-08-02T05:20:37.784Z,75.93
2022-08-02T05:21:09.633Z,75.89
2022-08-02T05:21:59.263Z,75.08
2022-08-02T05:22:30.699Z,75.01
2022-08-02T05:23:03.479Z,75.30
2022-08-02T05:23:34.847Z,75.02
2022-08-02T05:24:55.418Z,75.45
2022-08-02T05:25:27.019Z,74.74
2022-08-02T05:25:58.472Z,74.88
2022-08-02T05:26:29.832Z,75.42
2022-08-02T05:27:01.195Z,75.12
2022-08-02T05:27:47.740Z,75.53
2022-08-02T05:28:19.093Z,75.32
2022-08-02T05:28:50.576Z,75.60
2022-08-02T05:30:12.535Z,75.51
2022-08-02T05:30:43.940Z,75.20
2022-08-02T05:31:15.403Z,75.22
2022-08-02T05:31:47.051Z,75.44
2022-08-02T05:32:18.638Z,74.59
2022-08-02T05:32:52.605Z,74.64
2022-08-02T05:33:23.949Z,74.35
2022-08-02T05:33:55.376Z,74.50
2022-08-02T05:34:26.824Z,74.28
2022-08-02T05:35:01.128Z,74.74
2022-08-02T05:35:33.240Z,74.64
2022-08-02T05:36:04.789Z,74.85
2022-08-02T05:36:55.011Z,74.39
2022-08-02T05:37:26.894Z,74.06
2022-08-02T05:38:25.167Z,74.81
2022-08-02T05:39:04.620Z,74.89
2022-08-02T05:39:36.562Z,74.19
2022-08-02T05:40:26.682Z,74.67
2022-08-02T05:40:58.128Z,74.31
2022-08-02T05:41:29.479Z,74.39
2022-08-02T05:42:00.848Z,74.69
2022-08-02T05:42:32.416Z,74.55
2022-08-02T05:43:11.701Z,74.32
2022-08-02T05:43:43.039Z,74.33
2022-08-02T05:44:14.456Z,74.47
2022-08-02T05:44:46.014Z,74.74
2022-08-02T05:45:17.850Z,74.95
2022-08-02T05:45:49.203Z,74.74
2022-08-02T05:46:20.573Z,74.79
2022-08-02T05:46:51.972Z,74.64
2022-08-02T05:47:24.230Z,74.40
2022-08-02T05:47:55.568Z,74.72
2022-08-02T05:48:31.547Z,74.71
2022-08-02T05:49:04.526Z,74.20
2022-08-02T05:49:36.018Z,73.90
2022-08-02T05:50:09.108Z,74.49
2022-08-02T05:50:45.296Z,74.41
2022-08-02T05:51:39.144Z,73.86
2022-08-02T05:52:18.639Z,74.14
2022-08-02T05:53:21.941Z,74.59
2022-08-02T05:55:34.852Z,73.70
2022-08-02T05:56:32.743Z,73.74
2022-08-02T05:57:34.052Z,73.64
2022-08-02T05:58:20.633Z,74.20
2022-08-02T05:59:06.992Z,73.40
2022-08-02T06:00:05.718Z,73.95
2022-08-02T06:00:40.677Z,73.85
2022-08-02T06:01:18.418Z,73.61
2022-08-02T06:01:55.971Z,73.74
2022-08-02T06:02:33.854Z,73.53
2022-08-02T06:03:19.315Z,72.98
2022-08-02T06:03:52.123Z,73.11
2022-08-02T06:04:27.615Z,73.37
2022-08-02T06:05:16.500Z,73.37
2022-08-02T06:06:04.239Z,73.68
2022-08-02T06:06:37.630Z,73.45
2022-08-02T06:07:11.112Z,73.20
2022-08-02T06:07:45.150Z,73.14
2022-08-02T06:08:18.900Z,73.16
2022-08-02T06:09:00.579Z,72.95
2022-08-02T06:09:33.054Z,73.42
2022-08-02T06:10:05.577Z,73.14
2022-08-02T06:10:38.552Z,73.18
2022-08-02T06:11:20.878Z,73.43
2022-08-02T06:12:54.223Z,73.11
2022-08-02T06:13:26.113Z,73.05
2022-08-02T06:13:57.619Z,73.40
2022-08-02T06:14:31.567Z,73.29
2022-08-02T06:15:04.811Z,73.15
2022-08-02T06:15:38.993Z,73.39
2022-08-02T06:16:32.558Z,73.78
2022-08-02T06:17:05.048Z,74.10
2022-08-02T06:17:41.908Z,73.81
2022-08-02T06:18:17.471Z,73.84
2022-08-02T06:18:49.728Z,74.00
2022-08-02T06:19:21.379Z,73.86
2022-08-02T06:19:57.757Z,73.78
2022-08-02T06:20:35.537Z,73.35
2022-08-02T06:22:31.175Z,73.30
2022-08-02T06:22:35.645Z,73.31
2022-08-02T06:23:10.833Z,73.48
2022-08-02T06:23:58.886Z,73.28
2022-08-02T06:24:33.480Z,72.94
2022-08-02T06:25:05.849Z,72.78
2022-08-02T06:25:49.678Z,72.84
2022-08-02T06:26:23.644Z,73.12
2022-08-02T06:26:57.304Z,73.38
2022-08-02T06:27:30.222Z,74.05
2022-08-02T06:28:03.628Z,73.34
2022-08-02T06:28:39.188Z,73.53
2022-08-02T06:29:12.239Z,73.96
2022-08-02T06:29:43.936Z,73.74
2022-08-02T06:30:15.461Z,73.63
2022-08-02T06:30:47.165Z,73.32
2022-08-02T06:31:18.971Z,73.74
2022-08-02T06:31:53.279Z,73.40
2022-08-02T06:32:27.580Z,73.58
2022-08-02T06:32:59.719Z,73.62
2022-08-02T06:33:49.612Z,73.93
2022-08-02T06:34:21.064Z,73.92
2022-08-02T06:34:52.415Z,73.71
2022-08-02T06:35:35.387Z,73.13
2022-08-02T06:36:23.780Z,72.79
2022-08-02T06:37:26.155Z,73.67
2022-08-02T06:38:21.195Z,73.03
2022-08-02T06:39:20.508Z,72.82
2022-08-02T06:40:06.869Z,73.08
2022-08-02T06:41:02.910Z,73.23
2022-08-02T06:41:40.506Z,73.14
2022-08-02T06:42:15.230Z,72.74
2022-08-02T06:42:56.745Z,72.70
2022-08-02T06:43:49.731Z,73.11
2022-08-02T06:44:45.870Z,73.01
2022-08-02T06:45:12.540Z,73.13
2022-08-02T06:45:44.467Z,73.23
2022-08-02T06:46:53.348Z,73.04
2022-08-02T06:47:11.090Z,73.10
2022-08-02T06:47:44.367Z,73.26
2022-08-02T06:48:35.388Z,72.95
2022-08-02T06:49:06.814Z,73.07
2022-08-02T06:49:58.235Z,72.99
2022-08-02T06:50:30.463Z,72.78
2022-08-02T06:51:51.799Z,73.06
2022-08-02T06:52:29.674Z,73.18
2022-08-02T06:53:20.462Z,73.28
2022-08-02T06:53:52.037Z,73.21
2022-08-02T06:54:23.379Z,72.88
2022-08-02T06:54:56.457Z,72.83
2022-08-02T06:55:29.550Z,73.15
2022-08-02T06:56:00.913Z,73.64
2022-08-02T06:56:32.249Z,73.25
2022-08-02T06:57:03.671Z,73.01
2022-08-02T06:57:35.220Z,73.24
2022-08-02T06:58:06.640Z,73.38
2022-08-02T06:58:56.448Z,73.38
2022-08-02T06:59:27.788Z,73.13
2022-08-02T07:00:04.901Z,73.75
2022-08-02T07:00:36.780Z,73.06
2022-08-02T07:01:09.694Z,72.70
2022-08-02T07:01:41.830Z,72.98
2022-08-02T07:02:13.545Z,72.55
2022-08-02T07:02:45.209Z,72.88
2022-08-02T07:03:35.968Z,72.58
2022-08-02T07:04:07.379Z,72.71
2022-08-02T07:04:38.882Z,73.24
2022-08-02T07:05:10.648Z,72.99
2022-08-02T07:05:42.124Z,72.22
2022-08-02T07:06:13.531Z,72.29
2022-08-02T07:06:44.893Z,72.37
2022-08-02T07:07:16.343Z,72.49
2022-08-02T07:07:47.800Z,72.81
2022-08-02T07:08:38.185Z,72.93
2022-08-02T07:09:24.819Z,72.03
2022-08-02T07:10:00.753Z,72.48
2022-08-02T07:10:33.179Z,72.21
2022-08-02T07:11:05.863Z,72.21
2022-08-02T07:11:37.183Z,72.46
2022-08-02T07:12:09.199Z,72.30
2022-08-02T07:12:41.417Z,71.74
2022-08-02T07:13:13.366Z,71.54
2022-08-02T07:13:44.708Z,72.37
2022-08-02T07:14:16.048Z,72.65
2022-08-02T07:14:47.611Z,72.47
2022-08-02T07:15:18.990Z,71.70
2022-08-02T07:15:50.336Z,71.72
2022-08-02T07:16:22.151Z,72.03
2022-08-02T07:16:53.512Z,72.05
2022-08-02T07:17:24.932Z,71.57
2022-08-02T07:18:15.740Z,71.75
2022-08-02T07:18:47.118Z,71.75
2022-08-02T07:19:18.433Z,71.52
2022-08-02T07:19:49.766Z,71.16
2022-08-02T07:20:21.133Z,71.37
2022-08-02T07:20:52.773Z,70.81
2022-08-02T07:21:57.228Z,71.38
2022-08-02T07:22:32.187Z,71.32
2022-08-02T07:23:03.579Z,71.53
2022-08-02T07:23:35.007Z,70.34
2022-08-02T07:24:06.387Z,69.90
2022-08-02T07:24:37.728Z,70.06
2022-08-02T07:25:09.634Z,70.03
2022-08-02T07:26:03.006Z,71.35
2022-08-02T07:26:32.676Z,70.75
2022-08-02T07:27:12.546Z,70.23
2022-08-02T07:27:44.624Z,69.93
2022-08-02T07:28:23.592Z,70.20
2022-08-02T07:28:55.886Z,70.68
2022-08-02T07:29:27.397Z,70.79
2022-08-02T07:30:54.360Z,70.42
2022-08-02T07:31:26.139Z,71.43
2022-08-02T07:31:57.548Z,70.51
2022-08-02T07:32:30.782Z,69.61
2022-08-02T07:33:38.786Z,70.41
2022-08-02T07:34:10.975Z,70.54
2022-08-02T07:34:42.756Z,70.23
2022-08-02T07:35:22.022Z,69.63
2022-08-02T07:35:53.868Z,70.09
2022-08-02T07:36:26.227Z,69.61
2022-08-02T07:36:57.635Z,69.66
2022-08-02T07:37:53.991Z,69.54
2022-08-02T07:38:25.557Z,69.19
2022-08-02T07:38:57.867Z,69.91
2022-08-02T07:39:29.699Z,70.28
2022-08-02T07:40:08.836Z,69.59
2022-08-02T07:40:44.330Z,69.24
2022-08-02T07:41:15.729Z,69.94
2022-08-02T07:41:47.571Z,69.16
2022-08-02T07:42:18.942Z,69.37
2022-08-02T07:42:54.509Z,69.99
2022-08-02T07:43:28.008Z,70.75
2022-08-02T07:43:59.357Z,69.49
2022-08-02T07:44:34.692Z,69.56
2022-08-02T07:45:06.400Z,69.49
2022-08-02T07:45:55.854Z,69.75
2022-08-02T07:46:29.063Z,69.60
2022-08-02T07:47:01.752Z,69.15
2022-08-02T07:47:37.739Z,69.81
2022-08-02T07:48:10.237Z,68.83
2022-08-02T07:48:41.604Z,69.25
2022-08-02T07:49:18.276Z,68.26
2022-08-02T07:49:49.883Z,68.98
2022-08-02T07:50:21.580Z,69.41
2022-08-02T07:50:52.995Z,69.16
2022-08-02T07:51:24.328Z,69.51
2022-08-02T07:51:56.267Z,68.76
2022-08-02T07:52:27.593Z,68.60
2022-08-02T07:52:59.047Z,68.79
2022-08-02T07:53:50.916Z,68.52
2022-08-02T07:54:22.183Z,69.29
2022-08-02T07:54:53.517Z,68.62
2022-08-02T07:55:40.051Z,68.90
2022-08-02T07:56:12.615Z,68.74
2022-08-02T07:56:43.978Z,69.90
2022-08-02T07:57:15.316Z,68.95
2022-08-02T07:57:47.716Z,69.47
2022-08-02T07:58:19.146Z,69.45
2022-08-02T07:58:50.517Z,69.19
2022-08-02T07:59:22.568Z,68.76
2022-08-02T07:59:53.923Z,67.81
2022-08-02T08:00:25.290Z,67.97
2022-08-02T08:00:56.631Z,68.97
2022-08-02T08:01:28.068Z,68.75
2022-08-02T08:01:59.765Z,69.08
2022-08-02T08:02:31.163Z,68.61
2022-08-02T08:03:20.982Z,68.31
2022-08-02T08:03:52.315Z,68.85
2022-08-02T08:04:23.649Z,68.69
2022-08-02T08:05:43.896Z,68.91
2022-08-02T08:06:33.779Z,69.91
2022-08-02T08:07:24.448Z,68.31
2022-08-02T08:07:55.774Z,68.20
2022-08-02T08:08:27.115Z,68.12